createdAt,value
2022-10-18T00:00:02.343Z,38.00
2022-10-18T00:02:31.612Z,36.70
2022-10-18T00:04:58.355Z,35.50
2022-10-18T00:07:25.181Z,36.40
2022-10-18T00:09:52.345Z,34.30
2022-10-18T00:12:19.066Z,32.50
2022-10-18T00:14:50.077Z,35.60
2022-10-18T00:17:16.949Z,29.60
2022-10-18T00:19:44.317Z,31.90
2022-10-18T00:22:11.056Z,24.70
2022-10-18T00:24:37.901Z,30.10
2022-10-18T00:27:04.589Z,32.40
2022-10-18T00:29:31.466Z,28.70
2022-10-18T00:31:58.159Z,30.20
2022-10-18T00:34:25.045Z,33.40
2022-10-18T00:36:51.777Z,34.30
2022-10-18T00:39:20.876Z,36.80
2022-10-18T00:41:48.448Z,36.00
2022-10-18T00:44:15.130Z,39.20
2022-10-18T00:46:44.876Z,38.00
2022-10-18T00:49:20.614Z,38.40
2022-10-18T00:51:50.223Z,36.10
2022-10-18T00:54:19.405Z,36.10
2022-10-18T00:56:46.515Z,38.80
2022-10-18T00:59:16.130Z,31.30
2022-10-18T01:01:43.844Z,32.10
2022-10-18T01:04:12.005Z,29.70
2022-10-18T01:06:50.681Z,32.70
2022-10-18T01:09:29.228Z,35.10
2022-10-18T01:12:09.865Z,35.10
2022-10-18T01:14:48.696Z,34.70
2022-10-18T01:17:23.162Z,33.50
2022-10-18T01:20:17.575Z,28.20
2022-10-18T01:22:50.063Z,26.60
2022-10-18T01:25:30.732Z,24.40
2022-10-18T01:28:02.486Z,25.10
2022-10-18T01:30:34.643Z,27.40
2022-10-18T01:33:09.512Z,29.00
2022-10-18T01:35:42.975Z,26.60
2022-10-18T01:38:14.206Z,26.70
2022-10-18T01:40:43.997Z,29.70
2022-10-18T01:43:12.777Z,26.10
2022-10-18T01:45:40.505Z,26.10
2022-10-18T01:48:09.102Z,30.20
2022-10-18T01:50:35.863Z,31.40
2022-10-18T01:53:03.284Z,28.30
2022-10-18T01:55:47.579Z,33.90
2022-10-18T01:58:22.635Z,46.20
2022-10-18T02:00:59.131Z,33.80
2022-10-18T02:03:29.396Z,43.00
2022-10-18T02:06:07.933Z,39.40
2022-10-18T02:08:42.882Z,45.20
2022-10-18T02:11:12.987Z,37.40
2022-10-18T02:13:46.052Z,36.00
2022-10-18T02:16:19.567Z,34.50
2022-10-18T02:18:52.090Z,36.50
2022-10-18T02:21:21.550Z,36.40
2022-10-18T02:23:49.193Z,34.00
2022-10-18T02:26:16.216Z,36.50
2022-10-18T02:28:43.829Z,38.30
2022-10-18T02:31:10.536Z,29.80
2022-10-18T02:33:49.769Z,33.50
2022-10-18T02:36:24.325Z,31.20
2022-10-18T02:38:56.257Z,29.70
2022-10-18T02:41:25.757Z,31.80
2022-10-18T02:43:53.027Z,31.60
2022-10-18T02:46:21.201Z,26.50
2022-10-18T02:48:48.468Z,34.80
2022-10-18T02:51:15.322Z,29.80
2022-10-18T02:53:42.560Z,28.20
2022-10-18T02:56:10.056Z,23.30
2022-10-18T02:58:36.704Z,23.90
2022-10-18T03:01:03.889Z,16.00
2022-10-18T03:03:30.577Z,30.30
2022-10-18T03:05:57.484Z,28.50
2022-10-18T03:08:24.226Z,26.90
2022-10-18T03:10:50.917Z,24.10
2022-10-18T03:13:18.088Z,26.00
2022-10-18T03:15:45.015Z,17.80
2022-10-18T03:18:11.871Z,24.20
2022-10-18T03:20:38.559Z,30.40
2022-10-18T03:23:05.689Z,26.50
2022-10-18T03:25:32.829Z,27.90
2022-10-18T03:27:59.493Z,15.90
2022-10-18T03:30:26.171Z,22.00
2022-10-18T03:32:54.310Z,23.70
2022-10-18T03:35:21.176Z,29.30
2022-10-18T03:37:48.424Z,30.70
2022-10-18T03:40:15.192Z,27.40
2022-10-18T03:42:41.887Z,27.20
2022-10-18T03:45:09.048Z,29.00
2022-10-18T03:47:36.648Z,34.50
2022-10-18T03:50:03.876Z,21.10
2022-10-18T03:52:30.914Z,35.70
2022-10-18T03:54:57.794Z,32.50
2022-10-18T03:57:24.502Z,31.50
2022-10-18T03:59:51.262Z,34.70
2022-10-18T04:02:18.181Z,27.20
2022-10-18T04:04:45.140Z,31.70
2022-10-18T04:07:12.019Z,21.20
2022-10-18T04:09:38.852Z,21.60
2022-10-18T04:12:05.734Z,29.10
2022-10-18T04:14:32.509Z,34.40
2022-10-18T04:16:59.380Z,30.10
2022-10-18T04:19:27.769Z,41.70
2022-10-18T04:21:54.538Z,32.50
2022-10-18T04:24:21.459Z,34.70
2022-10-18T04:26:48.150Z,40.60
2022-10-18T04:29:16.115Z,38.70
2022-10-18T04:31:43.382Z,36.30
2022-10-18T04:34:10.720Z,44.40
2022-10-18T04:36:37.637Z,24.10
2022-10-18T04:39:05.532Z,26.30
2022-10-18T04:41:32.345Z,44.50
2022-10-18T04:43:59.071Z,24.90
2022-10-18T04:46:25.900Z,43.10
2022-10-18T04:48:52.688Z,38.60
2022-10-18T04:51:19.516Z,38.80
2022-10-18T04:53:46.265Z,27.60
2022-10-18T04:56:13.044Z,35.30
2022-10-18T04:58:39.891Z,33.30
2022-10-18T05:01:07.795Z,25.50
2022-10-18T05:03:34.899Z,36.20
2022-10-18T05:06:03.069Z,34.20
2022-10-18T05:08:31.298Z,42.40
2022-10-18T05:10:58.079Z,34.20
2022-10-18T05:13:25.601Z,34.90
2022-10-18T05:15:52.445Z,24.10
2022-10-18T05:18:19.270Z,27.20
2022-10-18T05:20:47.119Z,21.20
2022-10-18T05:23:13.872Z,42.90
2022-10-18T05:25:42.570Z,34.70
2022-10-18T05:28:34.536Z,54.80
2022-10-18T05:31:02.237Z,29.20
2022-10-18T05:33:29.815Z,34.90
2022-10-18T05:35:56.579Z,31.60
2022-10-18T05:38:23.726Z,42.00
2022-10-18T05:40:50.725Z,42.30
2022-10-18T05:43:18.693Z,40.20
2022-10-18T05:45:50.016Z,38.20
2022-10-18T05:48:17.219Z,40.60
2022-10-18T05:50:45.329Z,29.70
2022-10-18T05:53:18.573Z,41.80
2022-10-18T05:56:01.723Z,38.50
2022-10-18T05:58:28.595Z,43.80
2022-10-18T06:00:59.290Z,43.00
2022-10-18T06:03:27.664Z,76.00
2022-10-18T06:06:00.322Z,74.20
2022-10-18T06:08:27.316Z,52.50
2022-10-18T06:10:55.010Z,40.00
2022-10-18T06:13:22.178Z,48.50
2022-10-18T06:15:49.166Z,27.60
2022-10-18T06:18:16.653Z,42.40
2022-10-18T06:20:43.368Z,48.10
2022-10-18T06:23:10.093Z,45.40
2022-10-18T06:25:36.908Z,38.40
2022-10-18T06:28:07.946Z,32.80
2022-10-18T06:30:37.206Z,28.90
2022-10-18T06:33:04.016Z,31.30
2022-10-18T06:35:30.862Z,26.70
2022-10-18T06:37:57.856Z,34.00
2022-10-18T06:40:24.837Z,34.60
2022-10-18T06:43:00.663Z,39.10
2022-10-18T06:45:37.407Z,35.90
2022-10-18T06:48:04.359Z,73.90
2022-10-18T06:50:31.587Z,81.50
2022-10-18T06:52:58.938Z,123.80
2022-10-18T06:55:25.668Z,88.10
2022-10-18T06:57:53.543Z,82.30
2022-10-18T07:00:20.320Z,56.60
2022-10-18T07:02:47.063Z,43.90
2022-10-18T07:05:14.319Z,46.10
2022-10-18T07:07:41.056Z,36.20
2022-10-18T07:10:11.197Z,40.70
2022-10-18T07:12:39.724Z,31.80
2022-10-18T07:15:09.361Z,29.60
2022-10-18T07:17:37.038Z,17.70
2022-10-18T07:20:04.488Z,16.80
2022-10-18T07:22:31.239Z,20.70
2022-10-18T07:24:57.955Z,17.60
2022-10-18T07:27:24.691Z,13.20
2022-10-18T07:29:51.574Z,12.30
2022-10-18T07:32:18.253Z,13.30
2022-10-18T07:34:45.103Z,15.20
2022-10-18T07:37:11.888Z,13.20
2022-10-18T07:39:38.856Z,14.80
2022-10-18T07:42:05.593Z,12.10
2022-10-18T07:44:32.292Z,34.10
2022-10-18T07:46:59.232Z,115.30
2022-10-18T07:49:26.124Z,45.20
2022-10-18T07:51:52.824Z,30.90
2022-10-18T07:54:20.249Z,22.70
2022-10-18T07:56:47.334Z,24.20
2022-10-18T07:59:14.355Z,31.10
2022-10-18T08:01:41.413Z,13.00
2022-10-18T08:04:11.600Z,9.70
2022-10-18T08:06:41.065Z,10.80
2022-10-18T08:09:11.283Z,10.60
2022-10-18T08:11:38.823Z,10.50
2022-10-18T08:14:05.819Z,8.60
2022-10-18T08:18:59.419Z,20.70
2022-10-18T08:21:26.677Z,13.00
2022-10-18T08:23:54.163Z,13.10
2022-10-18T08:26:23.219Z,15.70
2022-10-18T08:28:58.277Z,21.20
2022-10-18T08:31:36.576Z,17.50
2022-10-18T08:34:03.430Z,15.50
2022-10-18T08:36:30.169Z,23.10
2022-10-18T08:38:56.988Z,29.40
2022-10-18T08:41:46.464Z,15.90
2022-10-18T08:44:18.722Z,17.60
2022-10-18T08:46:48.416Z,15.40
2022-10-18T08:49:34.366Z,8.30
2022-10-18T08:52:02.689Z,7.30
2022-10-18T08:54:44.489Z,12.10
2022-10-18T08:57:16.040Z,9.60
2022-10-18T08:59:44.856Z,9.70
2022-10-18T09:02:43.058Z,12.20
2022-10-18T09:05:25.378Z,8.60
2022-10-18T09:08:26.254Z,9.60
2022-10-18T09:11:10.173Z,10.50
2022-10-18T09:13:49.050Z,7.10
2022-10-18T09:16:20.626Z,9.10
2022-10-18T09:18:52.087Z,7.10
2022-10-18T09:21:35.287Z,8.80
2022-10-18T09:24:14.258Z,5.50
2022-10-18T09:26:47.820Z,7.20
2022-10-18T09:29:40.292Z,7.30
2022-10-18T09:32:36.021Z,12.00
2022-10-18T09:35:14.954Z,11.10
2022-10-18T09:37:44.108Z,7.40
2022-10-18T09:40:24.975Z,7.30
2022-10-18T09:43:12.498Z,7.50
2022-10-18T09:45:43.386Z,6.10
2022-10-18T09:48:17.300Z,4.60
2022-10-18T09:50:57.890Z,8.90
2022-10-18T09:53:38.598Z,7.20
2022-10-18T09:56:09.848Z,11.70
2022-10-18T09:58:48.012Z,7.80
2022-10-18T10:01:22.071Z,9.50
2022-10-18T10:03:48.955Z,6.60
2022-10-18T10:06:23.721Z,10.30
2022-10-18T10:08:59.401Z,8.70
2022-10-18T10:11:29.937Z,11.60
2022-10-18T10:14:08.305Z,13.20
2022-10-18T10:16:44.937Z,11.70
2022-10-18T10:19:24.541Z,7.40
2022-10-18T10:21:55.172Z,7.00
2022-10-18T10:24:31.171Z,9.40
2022-10-18T10:27:02.005Z,8.80
2022-10-18T10:29:45.535Z,15.80
2022-10-18T10:32:16.102Z,10.60
2022-10-18T10:34:44.803Z,7.80
2022-10-18T10:37:27.835Z,10.20
2022-10-18T10:40:18.476Z,8.50
2022-10-18T10:43:19.640Z,29.20
2022-10-18T10:46:08.905Z,18.40
2022-10-18T10:49:08.447Z,7.80
2022-10-18T10:51:41.393Z,12.80
2022-10-18T10:54:23.526Z,12.10
2022-10-18T10:57:08.626Z,6.40
2022-10-18T10:59:53.526Z,7.40
2022-10-18T11:02:36.804Z,9.40
2022-10-18T11:05:23.495Z,4.90
2022-10-18T11:07:55.266Z,5.10
2022-10-18T11:10:27.366Z,5.70
2022-10-18T11:13:04.320Z,6.70
2022-10-18T11:15:36.662Z,6.70
2022-10-18T11:18:19.560Z,7.30
2022-10-18T11:20:59.612Z,9.20
2022-10-18T11:23:32.131Z,5.40
2022-10-18T11:26:09.592Z,6.50
2022-10-18T11:28:36.358Z,4.80
2022-10-18T11:31:21.413Z,10.00
2022-10-18T11:34:18.942Z,5.60
2022-10-18T11:37:27.673Z,6.10
2022-10-18T11:40:26.698Z,5.50
2022-10-18T11:42:59.340Z,9.30
2022-10-18T11:45:47.381Z,6.30
2022-10-18T11:48:40.459Z,8.30
2022-10-18T11:51:34.139Z,8.10
2022-10-18T11:54:17.279Z,9.90
2022-10-18T11:57:07.756Z,5.10
2022-10-18T11:59:46.096Z,5.90
2022-10-18T12:02:33.116Z,5.10
2022-10-18T12:05:23.546Z,6.50
2022-10-18T12:08:03.426Z,7.70
2022-10-18T12:10:45.705Z,6.30
2022-10-18T12:13:40.886Z,7.60
2022-10-18T12:16:09.618Z,15.40
2022-10-18T12:18:45.666Z,5.00
2022-10-18T12:21:13.182Z,6.00
2022-10-18T12:23:59.549Z,5.60
2022-10-18T12:26:28.598Z,3.70
2022-10-18T12:28:55.633Z,5.90
2022-10-18T12:31:34.019Z,5.10
2022-10-18T12:34:09.701Z,6.30
2022-10-18T12:39:43.669Z,9.50
2022-10-18T12:42:21.802Z,4.90
2022-10-18T12:44:49.056Z,7.00
2022-10-18T12:47:24.313Z,7.20
2022-10-18T12:50:02.985Z,4.60
2022-10-18T12:52:34.512Z,4.20
2022-10-18T12:58:14.837Z,5.60
2022-10-18T13:00:42.739Z,5.80
2022-10-18T13:03:13.090Z,5.60
2022-10-18T13:05:56.279Z,5.60
2022-10-18T13:08:32.937Z,5.20
2022-10-18T13:11:11.310Z,7.90
2022-10-18T13:14:18.020Z,5.70
2022-10-18T13:17:23.848Z,10.10
2022-10-18T13:20:25.098Z,6.30
2022-10-18T13:23:05.206Z,6.70
2022-10-18T13:25:51.304Z,6.10
2022-10-18T13:28:37.802Z,6.00
2022-10-18T13:31:23.254Z,5.80
2022-10-18T13:33:51.136Z,10.30
2022-10-18T13:36:25.359Z,8.60
2022-10-18T13:39:08.511Z,6.70
2022-10-18T13:41:56.543Z,5.10
2022-10-18T13:44:55.517Z,8.40
2022-10-18T13:47:50.164Z,9.50
2022-10-18T13:50:38.212Z,8.00
2022-10-18T13:53:23.007Z,9.80
2022-10-18T13:56:04.820Z,9.80
2022-10-18T13:59:13.500Z,8.30
2022-10-18T14:02:30.704Z,10.30
2022-10-18T14:05:24.949Z,10.00
2022-10-18T14:08:09.597Z,9.60
2022-10-18T14:11:01.270Z,11.90
2022-10-18T14:13:53.771Z,7.30
2022-10-18T14:16:46.429Z,8.80
2022-10-18T14:19:29.485Z,9.50
2022-10-18T14:22:13.168Z,8.40
2022-10-18T14:30:11.995Z,11.60
2022-10-18T14:32:51.001Z,8.90
2022-10-18T14:35:37.119Z,7.60
2022-10-18T14:38:06.783Z,10.20
2022-10-18T14:40:36.137Z,9.00
2022-10-18T14:43:10.773Z,11.40
2022-10-18T14:45:38.343Z,30.10
2022-10-18T14:48:08.064Z,13.10
2022-10-18T14:50:35.001Z,13.30
2022-10-18T14:53:07.532Z,9.70
2022-10-18T14:55:35.680Z,12.40
2022-10-18T14:58:03.132Z,11.80
2022-10-18T15:00:36.426Z,8.80
2022-10-18T15:03:07.451Z,9.70
2022-10-18T15:05:35.415Z,9.30
2022-10-18T15:08:02.537Z,14.20
2022-10-18T15:10:32.917Z,8.70
2022-10-18T15:13:11.194Z,11.50
2022-10-18T15:15:39.396Z,13.60
2022-10-18T15:18:09.387Z,12.50
2022-10-18T15:20:42.658Z,9.60
2022-10-18T15:23:28.146Z,15.90
2022-10-18T15:26:03.701Z,12.50
2022-10-18T15:28:36.051Z,14.20
2022-10-18T15:31:03.188Z,15.60
2022-10-18T15:33:34.835Z,14.00
2022-10-18T15:36:11.395Z,12.40
2022-10-18T15:38:39.084Z,9.40
2022-10-18T15:41:36.857Z,10.30
2022-10-18T15:44:13.185Z,14.20
2022-10-18T15:46:41.150Z,11.50
2022-10-18T15:49:24.443Z,11.20
2022-10-18T15:52:27.647Z,10.50
2022-10-18T15:54:56.022Z,9.80
2022-10-18T15:57:26.667Z,12.00
2022-10-18T16:00:04.092Z,13.40
2022-10-18T16:02:39.079Z,12.00
2022-10-18T16:05:06.065Z,14.90
2022-10-18T16:07:32.973Z,14.40
2022-10-18T16:10:00.031Z,13.40
2022-10-18T16:12:26.865Z,11.10
2022-10-18T16:14:53.592Z,15.50
2022-10-18T16:17:22.686Z,12.70
2022-10-18T16:19:50.496Z,11.80
2022-10-18T16:22:20.498Z,11.20
2022-10-18T16:24:48.967Z,11.60
2022-10-18T16:27:17.119Z,13.90
2022-10-18T16:29:44.104Z,12.90
2022-10-18T16:32:11.729Z,14.30
2022-10-18T16:34:41.696Z,10.40
2022-10-18T16:37:12.246Z,16.90
2022-10-18T16:39:39.209Z,14.40
2022-10-18T16:42:06.841Z,12.30
2022-10-18T16:44:34.151Z,12.10
2022-10-18T16:47:01.302Z,11.10
2022-10-18T16:49:28.552Z,16.80
2022-10-18T16:51:55.954Z,14.60
2022-10-18T16:54:23.790Z,16.50
2022-10-18T16:56:51.365Z,16.70
2022-10-18T16:59:24.809Z,8.80
2022-10-18T17:01:54.061Z,15.30
2022-10-18T17:04:22.430Z,15.60
2022-10-18T17:06:49.518Z,12.30
2022-10-18T17:09:18.002Z,13.40
2022-10-18T17:11:45.732Z,17.40
2022-10-18T17:14:12.973Z,13.80
2022-10-18T17:16:43.578Z,15.20
2022-10-18T17:19:13.566Z,13.40
2022-10-18T17:21:40.641Z,15.00
2022-10-18T17:24:07.671Z,13.00
2022-10-18T17:26:40.933Z,15.90
2022-10-18T17:29:12.629Z,12.10
2022-10-18T17:31:41.373Z,12.70
2022-10-18T17:34:09.500Z,19.00
2022-10-18T17:36:38.370Z,16.90
2022-10-18T17:39:06.053Z,17.40
2022-10-18T17:41:33.883Z,13.00
2022-10-18T17:44:05.944Z,13.50
2022-10-18T17:46:34.358Z,12.00
2022-10-18T17:49:03.142Z,16.50
2022-10-18T17:51:30.025Z,13.00
2022-10-18T17:53:57.547Z,11.10
2022-10-18T17:56:27.689Z,18.00
2022-10-18T17:58:56.526Z,12.50
2022-10-18T18:01:23.973Z,16.40
2022-10-18T18:03:57.077Z,14.60
2022-10-18T18:06:31.413Z,14.40
2022-10-18T18:09:02.213Z,17.40
2022-10-18T18:11:34.815Z,25.70
2022-10-18T18:14:03.064Z,15.20
2022-10-18T18:16:36.101Z,21.50
2022-10-18T18:22:32.862Z,32.30
2022-10-18T18:25:04.611Z,16.80
2022-10-18T18:27:32.627Z,22.80
2022-10-18T18:29:59.506Z,19.00
2022-10-18T18:32:27.050Z,26.40
2022-10-18T18:34:54.261Z,15.20
2022-10-18T18:37:24.536Z,16.10
2022-10-18T18:40:07.813Z,15.00
2022-10-18T18:42:43.805Z,19.90
2022-10-18T18:45:14.663Z,20.30
2022-10-18T18:48:02.157Z,18.20
2022-10-18T18:50:33.190Z,16.50
2022-10-18T18:53:00.163Z,18.60
2022-10-18T18:55:27.499Z,17.00
2022-10-18T18:57:56.476Z,23.40
2022-10-18T19:00:25.913Z,17.50
2022-10-18T19:02:54.343Z,19.40
2022-10-18T19:05:33.305Z,19.40
2022-10-18T19:08:02.213Z,19.60
2022-10-18T19:10:32.036Z,19.50
2022-10-18T19:12:59.996Z,21.10
2022-10-18T19:15:28.369Z,21.40
2022-10-18T19:17:57.113Z,21.40
2022-10-18T19:20:26.020Z,20.90
2022-10-18T19:22:54.046Z,19.90
2022-10-18T19:25:27.163Z,20.70
2022-10-18T19:27:56.092Z,21.50
2022-10-18T19:30:26.234Z,18.10
2022-10-18T19:33:01.248Z,24.10
2022-10-18T19:35:31.085Z,17.40
2022-10-18T19:38:00.774Z,15.90
2022-10-18T19:40:28.493Z,15.50
2022-10-18T19:42:58.054Z,13.30
2022-10-18T19:45:26.004Z,11.70
2022-10-18T19:47:53.305Z,12.10
2022-10-18T19:50:20.204Z,10.60
2022-10-18T19:52:48.000Z,9.40
2022-10-18T19:55:14.857Z,8.50
2022-10-18T19:57:42.132Z,9.30
2022-10-18T20:00:10.832Z,8.80
2022-10-18T20:02:41.308Z,6.00
2022-10-18T20:05:08.696Z,7.10
2022-10-18T20:07:36.930Z,6.50
2022-10-18T20:10:04.426Z,5.10
2022-10-18T20:12:31.515Z,3.40
2022-10-18T20:14:58.692Z,7.90
2022-10-18T20:17:25.780Z,7.40
2022-10-18T20:19:52.570Z,4.40
2022-10-18T20:22:19.617Z,3.70
2022-10-18T20:24:47.411Z,4.00
2022-10-18T20:27:14.168Z,3.80
2022-10-18T20:29:41.133Z,3.70
2022-10-18T20:32:08.886Z,5.00
2022-10-18T20:34:35.611Z,4.40
2022-10-18T20:37:02.382Z,4.60
2022-10-18T20:39:29.096Z,5.00
2022-10-18T20:41:55.916Z,4.40
2022-10-18T20:44:22.783Z,6.00
2022-10-18T20:46:49.669Z,5.60
2022-10-18T20:49:17.053Z,3.60
2022-10-18T20:51:44.332Z,3.60
2022-10-18T20:54:11.938Z,5.50
2022-10-18T20:56:39.250Z,3.80
2022-10-18T20:59:09.922Z,2.80
2022-10-18T21:01:39.040Z,3.60
2022-10-18T21:04:08.532Z,4.10
2022-10-18T21:06:41.150Z,4.80
2022-10-18T21:09:13.001Z,5.50
2022-10-18T21:11:42.063Z,3.60
2022-10-18T21:14:13.261Z,2.60
2022-10-18T21:16:41.219Z,2.40
2022-10-18T21:19:13.098Z,4.20
2022-10-18T21:21:46.094Z,2.50
2022-10-18T21:24:13.825Z,2.30
2022-10-18T21:26:41.622Z,2.40
2022-10-18T21:29:08.817Z,3.10
2022-10-18T21:31:39.783Z,3.70
2022-10-18T21:34:13.014Z,2.20
2022-10-18T21:36:41.022Z,1.80
2022-10-18T21:39:12.027Z,3.40
2022-10-18T21:41:39.071Z,2.30
2022-10-18T21:44:08.359Z,1.90
2022-10-18T21:46:39.497Z,4.90
2022-10-18T21:49:08.562Z,2.40
2022-10-18T21:51:36.462Z,2.80
2022-10-18T21:54:03.576Z,2.00
2022-10-18T21:56:32.711Z,2.40
2022-10-18T21:59:00.284Z,3.10
2022-10-18T22:01:32.354Z,2.20
2022-10-18T22:04:01.089Z,3.00
2022-10-18T22:06:32.178Z,2.10
2022-10-18T22:09:03.452Z,2.80
2022-10-18T22:11:39.893Z,2.10
2022-10-18T22:14:06.736Z,3.40
2022-10-18T22:16:34.182Z,3.70
2022-10-18T22:19:03.294Z,3.90
2022-10-18T22:21:30.291Z,8.40
2022-10-18T22:23:58.385Z,4.10
2022-10-18T22:26:29.174Z,4.30
2022-10-18T22:28:59.796Z,2.50
2022-10-18T22:31:30.058Z,2.80
2022-10-18T22:33:59.859Z,3.50
2022-10-18T22:36:27.466Z,6.50
2022-10-18T22:38:54.545Z,3.70
2022-10-18T22:41:21.388Z,3.00
2022-10-18T22:43:50.433Z,2.40
2022-10-18T22:46:17.800Z,3.70
2022-10-18T22:48:45.017Z,3.20
2022-10-18T22:51:13.016Z,3.90
2022-10-18T22:53:40.767Z,3.20
2022-10-18T22:56:10.538Z,3.90
2022-10-18T22:58:37.373Z,2.80
2022-10-18T23:01:08.999Z,3.40
2022-10-18T23:03:37.277Z,5.10
2022-10-18T23:06:05.513Z,3.50
2022-10-18T23:08:32.850Z,4.50
2022-10-18T23:11:00.491Z,2.80
2022-10-18T23:13:27.968Z,5.90
2022-10-18T23:16:04.450Z,5.60
2022-10-18T23:18:32.772Z,5.60
2022-10-18T23:21:02.708Z,4.90
2022-10-18T23:23:34.926Z,6.70
2022-10-18T23:26:04.041Z,5.20
2022-10-18T23:28:34.809Z,5.30
2022-10-18T23:31:07.714Z,7.20
2022-10-18T23:33:35.066Z,6.80
2022-10-18T23:36:02.225Z,6.20
2022-10-18T23:38:30.935Z,4.70
2022-10-18T23:40:58.538Z,5.60
2022-10-18T23:43:25.628Z,5.00
2022-10-18T23:45:52.405Z,4.80
2022-10-18T23:48:19.139Z,4.80
2022-10-18T23:50:46.056Z,5.30
2022-10-18T23:53:12.852Z,5.00
2022-10-18T23:55:39.588Z,5.80
2022-10-18T23:58:06.341Z,3.60
